Austin, Indiana
Current Conditions -  °F | °C
As of 9:50 PM on Sunday 19 Oct 2014 (Local Time) from KBAK Reporting Station
Clear Clear  
Wind Chill: 45°   Ceiling: Unl
Heat Index: 45°   Visibility: 10mi
Dew Point: 41°   Wind: 0mph
Humidity: 87%   Direction: NA
Pressure: 30.09"   Gusts: NA
Location:  38.76°N, 85.81°W
Report Text: KBAK 200150Z 00000KT 10SM SKC 07/05 A3009
Loading
Personal Weather Stations






























Interactive Weather Map
Tropical Storm Tracking
New forecast layout! Learn more

10-Day Weather Forecast

Advertisements
Track Severe Weather on mobile